createdAt,value
2018-09-12T00:02:08.571Z,75.50
2018-09-12T00:04:37.674Z,75.40
2018-09-12T00:07:06.724Z,75.60
2018-09-12T00:09:35.869Z,76.50
2018-09-12T00:12:05.069Z,76.40
2018-09-12T00:14:34.856Z,76.30
2018-09-12T00:17:03.908Z,76.60
2018-09-12T00:19:33.001Z,76.80
2018-09-12T00:22:02.091Z,77.10
2018-09-12T00:24:31.165Z,77.00
2018-09-12T00:27:00.288Z,76.40
2018-09-12T00:29:29.571Z,76.70
2018-09-12T00:31:58.634Z,76.90
2018-09-12T00:34:27.703Z,77.10
2018-09-12T00:36:57.320Z,77.30
2018-09-12T00:39:26.420Z,77.30
2018-09-12T00:41:55.549Z,77.50
2018-09-12T00:44:24.661Z,78.40
2018-09-12T00:46:53.815Z,78.60
2018-09-12T00:49:22.991Z,78.10
2018-09-12T00:51:52.820Z,77.60
2018-09-12T00:54:21.913Z,77.40
2018-09-12T00:56:50.969Z,77.20
2018-09-12T00:59:20.104Z,77.50
2018-09-12T01:01:49.769Z,77.90
2018-09-12T01:04:19.458Z,77.70
2018-09-12T01:06:48.516Z,78.30
2018-09-12T01:09:18.273Z,78.50
2018-09-12T01:11:47.381Z,78.30
2018-09-12T01:14:16.569Z,78.10
2018-09-12T01:16:46.152Z,78.40
2018-09-12T01:19:15.230Z,78.40
2018-09-12T01:21:44.315Z,78.40
2018-09-12T01:24:13.393Z,78.30
2018-09-12T01:26:42.556Z,78.80
2018-09-12T01:29:11.718Z,79.00
2018-09-12T01:31:40.759Z,79.20
2018-09-12T01:34:09.910Z,79.80
2018-09-12T01:36:39.533Z,80.10
2018-09-12T01:39:09.947Z,80.10
2018-09-12T01:41:39.028Z,80.60
2018-09-12T01:44:08.233Z,80.40
2018-09-12T01:46:37.903Z,80.30
2018-09-12T01:49:06.984Z,80.40
2018-09-12T01:51:43.584Z,80.70
2018-09-12T01:54:12.785Z,80.80
2018-09-12T01:56:41.985Z,80.50
2018-09-12T01:59:11.517Z,80.20
2018-09-12T02:01:40.652Z,80.10
2018-09-12T02:04:09.756Z,80.70
2018-09-12T02:06:38.944Z,80.10
2018-09-12T02:09:12.216Z,79.80
2018-09-12T02:11:41.361Z,80.00
2018-09-12T02:14:10.573Z,78.90
2018-09-12T02:16:39.720Z,78.80
2018-09-12T02:19:08.880Z,78.50
2018-09-12T02:21:37.932Z,78.70
2018-09-12T02:24:07.129Z,78.80
2018-09-12T02:26:36.313Z,79.30
2018-09-12T02:29:05.485Z,79.90
2018-09-12T02:31:34.613Z,79.80
2018-09-12T02:34:03.639Z,80.20
2018-09-12T02:36:32.769Z,80.00
2018-09-12T02:39:01.856Z,80.20
2018-09-12T02:41:30.950Z,80.30
2018-09-12T02:44:00.098Z,81.30
2018-09-12T02:46:29.335Z,81.90
2018-09-12T02:48:58.390Z,81.90
2018-09-12T02:51:27.516Z,82.20
2018-09-12T02:53:56.648Z,82.20
2018-09-12T02:56:25.767Z,83.00
2018-09-12T02:58:54.836Z,83.30
2018-09-12T03:01:23.995Z,83.10
2018-09-12T03:03:53.188Z,83.10
2018-09-12T03:06:22.270Z,83.50
2018-09-12T03:08:51.382Z,83.10
2018-09-12T03:11:20.558Z,83.40
2018-09-12T03:13:50.088Z,83.90
2018-09-12T03:16:19.114Z,84.50
2018-09-12T03:18:48.626Z,84.10
2018-09-12T03:21:17.757Z,84.00
2018-09-12T03:23:46.976Z,83.90
2018-09-12T03:26:16.230Z,83.50
2018-09-12T03:28:45.865Z,84.10
2018-09-12T03:31:15.031Z,83.50
2018-09-12T03:33:44.166Z,84.50
2018-09-12T03:36:13.397Z,83.60
2018-09-12T03:38:42.485Z,83.30
2018-09-12T03:41:11.509Z,83.60
2018-09-12T03:43:40.593Z,84.50
2018-09-12T03:46:09.662Z,82.80
2018-09-12T03:48:38.889Z,82.50
2018-09-12T03:51:07.975Z,82.80
2018-09-12T03:53:37.401Z,82.80
2018-09-12T03:56:06.593Z,82.70
2018-09-12T03:58:35.712Z,82.60
2018-09-12T04:01:04.796Z,82.70
2018-09-12T04:03:34.470Z,82.80
2018-09-12T04:06:03.544Z,83.10
2018-09-12T04:08:32.667Z,83.40
2018-09-12T04:11:01.866Z,83.30
2018-09-12T04:13:31.071Z,83.50
2018-09-12T04:16:00.234Z,84.00
2018-09-12T04:18:29.299Z,84.20
2018-09-12T04:20:58.460Z,84.60
2018-09-12T04:23:28.233Z,85.20
2018-09-12T04:25:57.306Z,84.80
2018-09-12T04:28:26.394Z,85.30
2018-09-12T04:30:55.557Z,85.90
2018-09-12T04:33:24.783Z,85.60
2018-09-12T04:35:53.858Z,85.70
2018-09-12T04:38:23.048Z,85.70
2018-09-12T04:40:52.762Z,85.70
2018-09-12T04:43:21.886Z,85.90
2018-09-12T04:45:50.972Z,85.70
2018-09-12T04:48:20.242Z,85.70
2018-09-12T04:50:49.389Z,85.40
2018-09-12T04:53:18.591Z,85.60
2018-09-12T04:55:48.083Z,85.90
2018-09-12T04:58:17.152Z,86.30
2018-09-12T05:00:46.901Z,86.50
2018-09-12T05:03:16.112Z,87.00
2018-09-12T05:05:45.526Z,86.30
2018-09-12T05:08:15.072Z,85.60
2018-09-12T05:10:44.197Z,85.50
2018-09-12T05:13:13.310Z,85.70
2018-09-12T05:15:42.427Z,85.70
2018-09-12T05:18:11.500Z,84.30
2018-09-12T05:20:41.163Z,84.30
2018-09-12T05:23:10.309Z,83.00
2018-09-12T05:25:39.502Z,82.80
2018-09-12T05:28:08.687Z,82.80
2018-09-12T05:30:37.962Z,82.90
2018-09-12T05:33:07.076Z,83.40
2018-09-12T05:35:36.239Z,83.50
2018-09-12T05:38:05.464Z,83.60
2018-09-12T05:40:34.675Z,83.80
2018-09-12T05:43:03.749Z,83.30
2018-09-12T05:45:33.264Z,81.90
2018-09-12T05:48:02.461Z,80.90
2018-09-12T05:50:32.745Z,81.80
2018-09-12T05:53:01.917Z,78.00
2018-09-12T05:55:32.117Z,72.10
2018-09-12T05:58:01.273Z,66.20
2018-09-12T06:00:30.517Z,60.90
2018-09-12T06:03:00.828Z,57.30
2018-09-12T06:05:29.944Z,55.40
2018-09-12T06:07:59.138Z,51.80
2018-09-12T06:10:28.912Z,48.30
2018-09-12T06:12:57.968Z,45.30
2018-09-12T06:15:27.104Z,43.30
2018-09-12T06:17:56.309Z,42.10
2018-09-12T06:20:25.433Z,40.70
2018-09-12T06:22:54.525Z,39.20
2018-09-12T06:25:23.686Z,39.40
2018-09-12T06:27:52.861Z,36.80
2018-09-12T06:30:22.126Z,34.70
2018-09-12T06:32:52.294Z,33.80
2018-09-12T06:35:21.444Z,32.50
2018-09-12T06:37:50.677Z,32.70
2018-09-12T06:40:19.803Z,31.30
2018-09-12T06:42:48.888Z,31.30
2018-09-12T06:45:18.528Z,31.40
2018-09-12T06:47:47.613Z,31.80
2018-09-12T06:50:16.871Z,32.50
2018-09-12T06:52:45.928Z,30.60
2018-09-12T06:55:15.045Z,30.30
2018-09-12T06:57:44.181Z,29.50
2018-09-12T07:00:13.351Z,28.50
2018-09-12T07:02:43.244Z,28.30
2018-09-12T07:05:12.413Z,30.50
2018-09-12T07:07:41.635Z,29.30
2018-09-12T07:10:10.657Z,28.80
2018-09-12T07:12:39.780Z,28.40
2018-09-12T07:15:09.018Z,28.60
2018-09-12T07:17:38.084Z,27.40
2018-09-12T07:20:07.312Z,26.40
2018-09-12T07:22:36.433Z,27.70
2018-09-12T07:25:05.577Z,25.90
2018-09-12T07:27:35.455Z,25.90
2018-09-12T07:30:04.679Z,27.90
2018-09-12T07:32:33.725Z,28.20
2018-09-12T07:35:02.867Z,27.00
2018-09-12T07:37:32.106Z,27.50
2018-09-12T07:40:01.271Z,29.50
2018-09-12T07:42:31.465Z,28.90
2018-09-12T07:45:00.720Z,29.00
2018-09-12T07:47:29.892Z,30.40
2018-09-12T07:49:59.548Z,29.80
2018-09-12T07:52:28.630Z,30.70
2018-09-12T07:54:57.921Z,29.10
2018-09-12T07:57:26.960Z,29.70
2018-09-12T07:59:56.050Z,29.40
2018-09-12T08:02:25.192Z,29.10
2018-09-12T08:04:54.289Z,28.90
2018-09-12T08:07:23.409Z,30.00
2018-09-12T08:09:52.595Z,29.30
2018-09-12T08:12:21.853Z,27.50
2018-09-12T08:14:51.978Z,27.10
2018-09-12T08:17:21.842Z,27.10
2018-09-12T08:19:50.892Z,27.20
2018-09-12T08:22:20.044Z,28.20
2018-09-12T08:24:49.143Z,29.40
2018-09-12T08:27:18.296Z,27.10
2018-09-12T08:29:47.457Z,26.00
2018-09-12T08:32:16.541Z,25.50
2018-09-12T08:34:45.696Z,26.60
2018-09-12T08:37:14.916Z,26.30
2018-09-12T08:39:44.079Z,26.10
2018-09-12T08:42:13.205Z,25.90
2018-09-12T08:44:42.229Z,25.40
2018-09-12T08:47:11.326Z,25.40
2018-09-12T08:49:40.349Z,25.10
2018-09-12T08:52:10.104Z,26.10
2018-09-12T08:54:39.153Z,24.60
2018-09-12T08:57:09.090Z,22.50
2018-09-12T08:59:38.271Z,23.70
2018-09-12T09:02:07.422Z,21.30
2018-09-12T09:04:36.557Z,20.80
2018-09-12T09:07:05.720Z,20.00
2018-09-12T09:09:34.853Z,19.90
2018-09-12T09:12:03.931Z,19.60
2018-09-12T09:14:32.992Z,20.70
2018-09-12T09:17:02.140Z,19.40
2018-09-12T09:19:31.805Z,20.20
2018-09-12T09:22:01.352Z,20.50
2018-09-12T09:24:30.446Z,19.60
2018-09-12T09:26:59.657Z,18.60
2018-09-12T09:29:28.894Z,18.30
2018-09-12T09:31:57.910Z,17.80
2018-09-12T09:34:27.019Z,17.40
2018-09-12T09:36:56.956Z,18.30
2018-09-12T09:39:26.035Z,18.90
2018-09-12T09:41:55.691Z,18.50
2018-09-12T09:44:25.604Z,18.60
2018-09-12T09:46:54.636Z,19.70
2018-09-12T09:49:23.756Z,18.60
2018-09-12T09:51:52.819Z,18.10
2018-09-12T09:54:21.901Z,17.20
2018-09-12T09:56:50.976Z,18.20
2018-09-12T09:59:20.094Z,18.70
2018-09-12T10:01:54.378Z,18.60
2018-09-12T10:04:27.631Z,19.50
2018-09-12T10:06:59.303Z,18.90
2018-09-12T10:09:32.675Z,18.80
2018-09-12T10:12:02.841Z,17.80
2018-09-12T10:14:32.032Z,18.60
2018-09-12T10:17:01.681Z,18.40
2018-09-12T10:19:30.831Z,18.30
2018-09-12T10:21:59.982Z,18.10
2018-09-12T10:24:29.040Z,17.70
2018-09-12T10:26:58.095Z,16.90
2018-09-12T10:29:27.213Z,16.60
2018-09-12T10:31:56.259Z,17.30
2018-09-12T10:34:25.520Z,16.60
2018-09-12T10:36:54.730Z,16.50
2018-09-12T10:39:23.823Z,16.70
2018-09-12T10:41:52.956Z,16.40
2018-09-12T10:44:22.049Z,16.30
2018-09-12T10:46:51.097Z,15.70
2018-09-12T10:49:20.179Z,14.60
2018-09-12T10:51:49.246Z,13.80
2018-09-12T10:54:18.291Z,13.50
2018-09-12T10:56:47.346Z,13.40
2018-09-12T10:59:16.425Z,13.60
2018-09-12T11:01:45.477Z,12.30
2018-09-12T11:04:14.593Z,12.60
2018-09-12T11:06:43.612Z,12.90
2018-09-12T11:09:13.887Z,13.30
2018-09-12T11:11:43.668Z,14.40
2018-09-12T11:14:12.777Z,12.80
2018-09-12T11:16:42.527Z,12.90
2018-09-12T11:19:11.634Z,12.80
2018-09-12T11:21:40.724Z,12.60
2018-09-12T11:24:10.416Z,12.30
2018-09-12T11:26:39.499Z,13.10
2018-09-12T11:29:09.297Z,12.80
2018-09-12T11:31:38.378Z,12.60
2018-09-12T11:34:07.484Z,12.40
2018-09-12T11:36:36.637Z,12.20
2018-09-12T11:39:08.775Z,13.20
2018-09-12T11:41:37.904Z,12.00
2018-09-12T11:44:07.286Z,12.50
2018-09-12T11:46:36.417Z,12.50
2018-09-12T11:49:05.612Z,13.30
2018-09-12T11:51:34.691Z,12.70
2018-09-12T11:54:03.757Z,13.20
2018-09-12T11:56:32.936Z,12.40
2018-09-12T11:59:02.171Z,11.90
2018-09-12T12:01:31.296Z,11.90
2018-09-12T12:04:00.353Z,11.60
2018-09-12T12:06:29.490Z,12.70
2018-09-12T12:08:58.538Z,13.10
2018-09-12T12:11:27.677Z,13.00
2018-09-12T12:13:56.829Z,12.90
2018-09-12T12:16:26.188Z,13.60
2018-09-12T12:18:55.235Z,12.70
2018-09-12T12:21:24.340Z,13.40
2018-09-12T12:23:53.448Z,13.50
2018-09-12T12:26:23.262Z,13.50
2018-09-12T12:28:52.554Z,12.60
2018-09-12T12:31:22.337Z,13.80
2018-09-12T12:33:51.428Z,13.70
2018-09-12T12:36:20.604Z,14.50
2018-09-12T12:38:49.672Z,14.40
2018-09-12T12:41:18.788Z,14.40
2018-09-12T12:43:47.860Z,14.10
2018-09-12T12:46:16.975Z,14.40
2018-09-12T12:48:46.034Z,14.30
2018-09-12T12:51:15.245Z,14.60
2018-09-12T12:53:44.370Z,14.00
2018-09-12T12:56:13.580Z,14.10
2018-09-12T12:58:42.676Z,12.90
2018-09-12T13:01:11.860Z,12.90
2018-09-12T13:03:41.009Z,12.60
2018-09-12T13:06:10.956Z,12.30
2018-09-12T13:08:40.037Z,12.80
2018-09-12T13:11:09.114Z,12.80
2018-09-12T13:13:38.198Z,12.90
2018-09-12T13:16:07.513Z,12.90
2018-09-12T13:18:36.685Z,13.40
2018-09-12T13:21:05.948Z,12.40
2018-09-12T13:23:35.086Z,12.50
2018-09-12T13:26:04.207Z,12.70
2018-09-12T13:28:33.341Z,12.90
2018-09-12T13:31:02.403Z,13.40
2018-09-12T13:33:31.623Z,13.00
2018-09-12T13:36:00.718Z,12.70
2018-09-12T13:38:29.804Z,12.50
2018-09-12T13:40:58.887Z,12.70
2018-09-12T13:43:27.908Z,13.30
2018-09-12T13:45:56.968Z,13.60
2018-09-12T13:48:26.053Z,13.70
2018-09-12T13:50:55.273Z,13.80
2018-09-12T13:53:24.464Z,13.40
2018-09-12T13:55:53.831Z,14.00
2018-09-12T13:58:23.289Z,14.00
2018-09-12T14:00:52.569Z,13.70
2018-09-12T14:03:21.719Z,14.00
2018-09-12T14:05:50.839Z,13.10
2018-09-12T14:08:20.573Z,12.90
2018-09-12T14:10:49.638Z,12.50
2018-09-12T14:13:18.809Z,13.00
2018-09-12T14:15:47.991Z,12.10
2018-09-12T14:18:17.124Z,12.50
2018-09-12T14:20:46.236Z,12.60
2018-09-12T14:23:15.361Z,12.90
2018-09-12T14:25:45.235Z,13.30
2018-09-12T14:28:14.921Z,12.70
2018-09-12T14:30:44.056Z,13.60
2018-09-12T14:33:13.220Z,13.50
2018-09-12T14:35:42.938Z,13.80
2018-09-12T14:38:12.117Z,13.80
2018-09-12T14:40:41.211Z,13.60
2018-09-12T14:43:10.379Z,13.60
2018-09-12T14:45:40.077Z,13.30
2018-09-12T14:48:09.721Z,13.00
2018-09-12T14:50:38.824Z,13.70
2018-09-12T14:53:07.884Z,13.50
2018-09-12T14:55:37.184Z,13.10
2018-09-12T14:58:06.411Z,12.40
2018-09-12T15:00:35.672Z,12.60
2018-09-12T15:03:04.899Z,13.00
2018-09-12T15:05:34.709Z,14.00
2018-09-12T15:08:04.441Z,15.10
2018-09-12T15:10:33.675Z,15.70
2018-09-12T15:13:02.706Z,15.40
2018-09-12T15:15:31.813Z,15.30
2018-09-12T15:18:01.368Z,16.00
2018-09-12T15:20:30.516Z,16.60
2018-09-12T15:22:59.591Z,15.90
2018-09-12T15:25:28.694Z,15.30
2018-09-12T15:27:57.751Z,15.60
2018-09-12T15:30:26.870Z,15.50
2018-09-12T15:32:56.018Z,14.70
2018-09-12T15:35:25.265Z,14.40
2018-09-12T15:37:54.357Z,14.90
2018-09-12T15:40:23.458Z,15.30
2018-09-12T15:42:53.148Z,15.10
2018-09-12T15:45:22.270Z,14.70
2018-09-12T15:47:51.439Z,15.20
2018-09-12T15:50:22.571Z,15.30
2018-09-12T15:52:51.836Z,15.10
2018-09-12T15:55:21.261Z,14.70
2018-09-12T15:57:50.426Z,14.60
2018-09-12T16:00:19.546Z,14.80
2018-09-12T16:02:48.695Z,15.60
2018-09-12T16:05:17.789Z,15.70
2018-09-12T16:07:46.832Z,15.50
2018-09-12T16:10:16.605Z,15.00
2018-09-12T16:12:45.691Z,15.40
2018-09-12T16:15:14.888Z,15.50
2018-09-12T16:17:44.520Z,15.70
2018-09-12T16:20:13.614Z,16.00
2018-09-12T16:22:42.676Z,16.70
2018-09-12T16:25:11.752Z,16.90
2018-09-12T16:27:40.905Z,18.10
2018-09-12T16:30:10.210Z,17.70
2018-09-12T16:32:39.518Z,20.00
2018-09-12T16:35:08.594Z,22.50
2018-09-12T16:37:37.841Z,24.40
2018-09-12T16:40:07.597Z,25.60
2018-09-12T16:42:37.403Z,25.90
2018-09-12T16:45:06.557Z,26.40
2018-09-12T16:47:35.717Z,28.10
2018-09-12T16:50:05.376Z,29.80
2018-09-12T16:52:34.488Z,29.60
2018-09-12T16:55:03.596Z,29.70
2018-09-12T16:57:32.668Z,30.90
2018-09-12T17:00:01.742Z,31.30
2018-09-12T17:02:30.887Z,31.40
2018-09-12T17:04:59.937Z,31.90
2018-09-12T17:07:29.116Z,32.50
2018-09-12T17:09:58.340Z,32.40
2018-09-12T17:12:27.936Z,34.40
2018-09-12T17:14:57.008Z,34.40
2018-09-12T17:17:26.139Z,34.70
2018-09-12T17:19:55.248Z,35.00
2018-09-12T17:22:24.373Z,35.60
2018-09-12T17:24:53.465Z,36.30
2018-09-12T17:27:22.572Z,36.40
2018-09-12T17:29:51.627Z,36.50
2018-09-12T17:32:20.812Z,36.60
2018-09-12T17:34:49.903Z,37.00
2018-09-12T17:37:18.977Z,38.80
2018-09-12T17:39:48.033Z,39.20
2018-09-12T17:42:17.189Z,39.00
2018-09-12T17:44:46.860Z,39.70
2018-09-12T17:47:15.913Z,40.20
2018-09-12T17:49:45.060Z,40.20
2018-09-12T17:52:14.119Z,39.40
2018-09-12T17:54:43.340Z,39.40
2018-09-12T17:57:12.484Z,39.50
2018-09-12T17:59:41.737Z,39.50
2018-09-12T18:02:10.884Z,39.40
2018-09-12T18:04:40.641Z,39.70
2018-09-12T18:07:09.740Z,40.20
2018-09-12T18:09:38.828Z,40.90
2018-09-12T18:12:07.885Z,41.20
2018-09-12T18:14:37.037Z,41.50
2018-09-12T18:17:06.235Z,41.30
2018-09-12T18:19:36.036Z,41.80
2018-09-12T18:22:05.204Z,42.30
2018-09-12T18:24:34.309Z,41.60
2018-09-12T18:27:03.529Z,41.30
2018-09-12T18:29:32.749Z,41.90
2018-09-12T18:32:01.912Z,42.20
2018-09-12T18:34:31.600Z,42.80
2018-09-12T18:37:00.632Z,43.30
2018-09-12T18:39:29.860Z,43.90
2018-09-12T18:41:58.997Z,44.80
2018-09-12T18:44:28.052Z,44.70
2018-09-12T18:46:57.218Z,44.40
2018-09-12T18:49:26.418Z,45.70
2018-09-12T18:51:55.956Z,46.30
2018-09-12T18:54:25.034Z,47.00
2018-09-12T18:56:54.117Z,46.70
2018-09-12T18:59:23.200Z,47.50
2018-09-12T19:01:52.255Z,49.50
2018-09-12T19:04:21.397Z,49.40
2018-09-12T19:06:50.590Z,49.40
2018-09-12T19:09:19.530Z,49.60
2018-09-12T19:11:48.575Z,49.80
2018-09-12T19:14:17.707Z,50.10
2018-09-12T19:16:46.818Z,50.40
2018-09-12T19:19:15.996Z,50.80
2018-09-12T19:21:45.128Z,51.00
2018-09-12T19:24:14.304Z,51.10
2018-09-12T19:26:43.537Z,51.30
2018-09-12T19:29:12.629Z,51.40
2018-09-12T19:31:41.725Z,51.20
2018-09-12T19:34:10.796Z,50.70
2018-09-12T19:36:40.225Z,51.00
2018-09-12T19:39:10.026Z,51.50
2018-09-12T19:41:39.851Z,51.10
2018-09-12T19:44:08.911Z,51.50
2018-09-12T19:46:37.932Z,52.80
2018-09-12T19:49:07.005Z,53.20
2018-09-12T19:51:36.064Z,53.20
2018-09-12T19:54:05.238Z,53.40
2018-09-12T19:56:34.391Z,53.90
2018-09-12T19:59:03.617Z,53.90
2018-09-12T20:01:32.732Z,54.10
2018-09-12T20:04:01.800Z,54.80
2018-09-12T20:06:31.039Z,55.00
2018-09-12T20:09:00.285Z,55.70
2018-09-12T20:11:29.369Z,56.40
2018-09-12T20:13:59.025Z,57.50
2018-09-12T20:16:28.176Z,57.90
2018-09-12T20:18:57.987Z,57.70
2018-09-12T20:21:27.690Z,57.50
2018-09-12T20:23:56.980Z,57.30
2018-09-12T20:26:25.964Z,57.90
2018-09-12T20:28:55.175Z,57.40
2018-09-12T20:31:24.297Z,57.60
2018-09-12T20:33:53.867Z,58.30
2018-09-12T20:36:22.915Z,57.00
2018-09-12T20:38:52.089Z,57.00
2018-09-12T20:41:21.371Z,57.20
2018-09-12T20:43:50.571Z,56.60
2018-09-12T20:46:19.661Z,56.80
2018-09-12T20:48:48.765Z,56.60
2018-09-12T20:51:17.896Z,56.10
2018-09-12T20:53:46.976Z,56.50
2018-09-12T20:56:16.021Z,55.30
2018-09-12T20:58:45.216Z,54.50
2018-09-12T21:01:14.449Z,56.00
2018-09-12T21:03:43.480Z,56.00
2018-09-12T21:06:12.588Z,58.40
2018-09-12T21:08:41.679Z,58.30
2018-09-12T21:11:10.945Z,57.30
2018-09-12T21:13:39.977Z,57.20
2018-09-12T21:16:09.615Z,57.10
2018-09-12T21:18:38.692Z,56.70
2018-09-12T21:21:08.553Z,55.90
2018-09-12T21:23:37.612Z,56.30
2018-09-12T21:26:06.707Z,56.30
2018-09-12T21:28:35.878Z,56.50
2018-09-12T21:31:05.545Z,57.50
2018-09-12T21:33:34.704Z,58.60
2018-09-12T21:36:03.790Z,61.80
2018-09-12T21:38:32.840Z,63.50
2018-09-12T21:41:02.010Z,63.80
2018-09-12T21:43:31.171Z,64.20
2018-09-12T21:46:00.257Z,63.50
2018-09-12T21:48:29.402Z,64.70
2018-09-12T21:50:58.561Z,67.10
2018-09-12T21:53:27.733Z,66.70
2018-09-12T21:55:57.569Z,69.50
2018-09-12T21:58:26.637Z,74.50
2018-09-12T22:00:55.714Z,78.00
2018-09-12T22:03:24.881Z,80.70
2018-09-12T22:05:53.917Z,81.70
2018-09-12T22:08:23.237Z,81.80
2018-09-12T22:10:52.323Z,83.30
2018-09-12T22:13:21.497Z,82.10
2018-09-12T22:15:51.177Z,88.30
2018-09-12T22:18:20.278Z,88.50
2018-09-12T22:20:49.453Z,84.80
2018-09-12T22:23:18.496Z,86.10
2018-09-12T22:25:47.622Z,85.90
2018-09-12T22:28:16.776Z,85.20
2018-09-12T22:30:45.886Z,87.90
2018-09-12T22:33:14.977Z,89.50
2018-09-12T22:35:44.203Z,86.30
2018-09-12T22:38:13.973Z,86.60
2018-09-12T22:40:43.247Z,86.60
2018-09-12T22:43:12.296Z,87.40
2018-09-12T22:45:41.412Z,87.40
2018-09-12T22:48:10.584Z,85.60
2018-09-12T22:50:39.680Z,85.70
2018-09-12T22:53:08.762Z,86.80
2018-09-12T22:55:38.390Z,87.30
2018-09-12T22:58:07.537Z,87.70
2018-09-12T23:00:36.673Z,86.50
2018-09-12T23:03:05.851Z,87.60
2018-09-12T23:05:35.008Z,85.80
2018-09-12T23:08:04.081Z,85.50
2018-09-12T23:10:33.155Z,85.90
2018-09-12T23:13:02.281Z,86.60
2018-09-12T23:15:31.325Z,87.40
2018-09-12T23:18:00.450Z,85.70
2018-09-12T23:20:29.553Z,85.40
2018-09-12T23:22:58.694Z,85.10
2018-09-12T23:25:27.874Z,85.30
2018-09-12T23:27:56.934Z,85.30
2018-09-12T23:30:26.082Z,86.20
2018-09-12T23:32:55.250Z,88.00
2018-09-12T23:35:24.932Z,85.80
2018-09-12T23:37:54.103Z,86.50
2018-09-12T23:40:23.219Z,86.60
2018-09-12T23:42:52.944Z,87.30
2018-09-12T23:45:22.067Z,86.90
2018-09-12T23:47:51.208Z,85.90
2018-09-12T23:50:20.465Z,85.70
2018-09-12T23:52:49.527Z,84.90
2018-09-12T23:55:18.870Z,87.50
2018-09-12T23:57:49.164Z,85.30
